createdAt,value
2018-09-15T00:01:27.335Z,98413.00
2018-09-15T00:05:29.529Z,98419.00
2018-09-15T00:09:31.723Z,98410.00
2018-09-15T00:13:33.996Z,98423.00
2018-09-15T00:17:36.238Z,98417.00
2018-09-15T00:21:38.507Z,98414.00
2018-09-15T00:25:41.388Z,98406.00
2018-09-15T00:29:43.514Z,98405.00
2018-09-15T00:33:45.696Z,98409.00
2018-09-15T00:37:47.862Z,98406.00
2018-09-15T00:41:50.392Z,98420.00
2018-09-15T00:45:52.950Z,98412.00
2018-09-15T00:49:55.091Z,98416.00
2018-09-15T00:53:57.251Z,98424.00
2018-09-15T00:57:59.440Z,98430.00
2018-09-15T01:02:01.580Z,98426.00
2018-09-15T01:06:03.735Z,98425.00
2018-09-15T01:10:06.552Z,98427.00
2018-09-15T01:14:08.760Z,98432.00
2018-09-15T01:18:10.960Z,98435.00
2018-09-15T01:22:13.128Z,98426.00
2018-09-15T01:26:15.507Z,98424.00
2018-09-15T01:30:17.738Z,98427.00
2018-09-15T01:34:20.079Z,98431.00
2018-09-15T01:38:22.228Z,98427.00
2018-09-15T01:42:24.906Z,98437.00
2018-09-15T01:46:27.051Z,98451.00
2018-09-15T01:50:29.180Z,98447.00
2018-09-15T01:54:31.330Z,98438.00
2018-09-15T01:58:33.459Z,98444.00
2018-09-15T02:02:35.598Z,98436.00
2018-09-15T02:06:38.183Z,98449.00
2018-09-15T02:10:40.362Z,98447.00
2018-09-15T02:14:42.488Z,98449.00
2018-09-15T02:18:44.634Z,98452.00
2018-09-15T02:22:46.837Z,98451.00
2018-09-15T02:26:48.954Z,98456.00
2018-09-15T02:30:51.122Z,98453.00
2018-09-15T02:34:53.338Z,98461.00
2018-09-15T02:38:55.562Z,98466.00
2018-09-15T02:42:57.714Z,98472.00
2018-09-15T02:46:59.895Z,98474.00
2018-09-15T02:51:02.068Z,98463.00
2018-09-15T02:55:04.676Z,98470.00
2018-09-15T02:59:06.838Z,98474.00
2018-09-15T03:03:08.987Z,98468.00
2018-09-15T03:07:11.851Z,98468.00
2018-09-15T03:11:13.959Z,98468.00
2018-09-15T03:15:16.087Z,98472.00
2018-09-15T03:19:18.350Z,98468.00
2018-09-15T03:23:20.572Z,98473.00
2018-09-15T03:27:22.958Z,98477.00
2018-09-15T03:31:25.690Z,98478.00
2018-09-15T03:35:27.906Z,98477.00
2018-09-15T03:39:30.095Z,98476.00
2018-09-15T03:43:32.243Z,98468.00
2018-09-15T03:47:34.359Z,98471.00
2018-09-15T03:51:36.552Z,98476.00
2018-09-15T03:55:38.700Z,98479.00
2018-09-15T03:59:40.875Z,98487.00
2018-09-15T04:03:43.038Z,98490.00
2018-09-15T04:07:45.185Z,98490.00
2018-09-15T04:11:47.414Z,98483.00
2018-09-15T04:15:49.622Z,98491.00
2018-09-15T04:19:51.758Z,98483.00
2018-09-15T04:23:53.918Z,98501.00
2018-09-15T04:27:56.054Z,98507.00
2018-09-15T04:31:58.475Z,98515.00
2018-09-15T04:36:00.690Z,98517.00
2018-09-15T04:40:02.942Z,98523.00
2018-09-15T04:44:05.286Z,98536.00
2018-09-15T04:48:07.422Z,98529.00
2018-09-15T04:52:09.578Z,98536.00
2018-09-15T04:56:11.761Z,98539.00
2018-09-15T05:00:13.904Z,98536.00
2018-09-15T05:04:16.067Z,98544.00
2018-09-15T05:08:18.539Z,98550.00
2018-09-15T05:12:20.789Z,98562.00
2018-09-15T05:16:22.877Z,98561.00
2018-09-15T05:20:25.008Z,98561.00
2018-09-15T05:24:27.171Z,98563.00
2018-09-15T05:28:29.339Z,98565.00
2018-09-15T05:32:31.501Z,98568.00
2018-09-15T05:36:33.690Z,98565.00
2018-09-15T05:40:36.703Z,98573.00
2018-09-15T05:44:38.891Z,98581.00
2018-09-15T05:48:41.035Z,98585.00
2018-09-15T05:52:43.194Z,98594.00
2018-09-15T05:56:45.435Z,98595.00
2018-09-15T06:00:47.660Z,98598.00
2018-09-15T06:04:49.848Z,98606.00
2018-09-15T06:08:52.032Z,98609.00
2018-09-15T06:12:54.257Z,98605.00
2018-09-15T06:16:56.402Z,98600.00
2018-09-15T06:20:58.612Z,98593.00
2018-09-15T06:25:00.769Z,98612.00
2018-09-15T06:29:03.202Z,98613.00
2018-09-15T06:33:05.471Z,98614.00
2018-09-15T06:37:07.650Z,98612.00
2018-09-15T06:41:10.324Z,98618.00
2018-09-15T06:45:12.572Z,98634.00
2018-09-15T06:49:14.746Z,98627.00
2018-09-15T06:53:16.928Z,98625.00
2018-09-15T06:57:19.141Z,98627.00
2018-09-15T07:01:21.333Z,98628.00
2018-09-15T07:05:24.075Z,98631.00
2018-09-15T07:09:26.254Z,98635.00
2018-09-15T07:13:28.400Z,98636.00
2018-09-15T07:17:30.743Z,98645.00
2018-09-15T07:21:32.900Z,98645.00
2018-09-15T07:25:35.074Z,98657.00
2018-09-15T07:29:37.263Z,98670.00
2018-09-15T07:33:39.449Z,98661.00
2018-09-15T07:37:42.547Z,98666.00
2018-09-15T07:41:44.775Z,98675.00
2018-09-15T07:45:47.339Z,98685.00
2018-09-15T07:49:50.222Z,98682.00
2018-09-15T07:53:52.364Z,98683.00
2018-09-15T07:57:54.765Z,98685.00
2018-09-15T08:01:56.842Z,98689.00
2018-09-15T08:05:59.048Z,98694.00
2018-09-15T08:10:01.243Z,98692.00
2018-09-15T08:14:03.485Z,98689.00
2018-09-15T08:18:05.678Z,98690.00
2018-09-15T08:22:07.890Z,98694.00
2018-09-15T08:26:10.114Z,98695.00
2018-09-15T08:30:12.378Z,98692.00
2018-09-15T08:34:14.551Z,98703.00
2018-09-15T08:38:16.752Z,98709.00
2018-09-15T08:42:19.015Z,98717.00
2018-09-15T08:46:21.151Z,98716.00
2018-09-15T08:50:23.374Z,98719.00
2018-09-15T08:54:25.712Z,98720.00
2018-09-15T08:58:27.876Z,98714.00
2018-09-15T09:02:30.094Z,98710.00
2018-09-15T09:06:32.252Z,98710.00
2018-09-15T09:10:34.736Z,98707.00
2018-09-15T09:14:36.926Z,98717.00
2018-09-15T09:18:39.183Z,98717.00
2018-09-15T09:22:41.438Z,98721.00
2018-09-15T09:26:43.664Z,98724.00
2018-09-15T09:30:45.806Z,98720.00
2018-09-15T09:34:48.017Z,98706.00
2018-09-15T09:38:50.234Z,98718.00
2018-09-15T09:42:52.760Z,98715.00
2018-09-15T09:46:54.966Z,98716.00
2018-09-15T09:50:57.147Z,98716.00
2018-09-15T09:54:59.348Z,98708.00
2018-09-15T09:59:01.644Z,98720.00
2018-09-15T10:03:03.838Z,98719.00
2018-09-15T10:07:06.108Z,98709.00
2018-09-15T10:11:08.454Z,98708.00
2018-09-15T10:15:10.648Z,98707.00
2018-09-15T10:19:12.878Z,98714.00
2018-09-15T10:23:15.047Z,98703.00
2018-09-15T10:27:17.214Z,98715.00
2018-09-15T10:31:19.554Z,98711.00
2018-09-15T11:28:57.455Z,98719.00
2018-09-15T11:32:59.587Z,98721.00
2018-09-15T11:37:01.784Z,98730.00
2018-09-15T11:41:04.178Z,98734.00
2018-09-15T11:45:06.420Z,98726.00
2018-09-15T11:49:09.229Z,98721.00
2018-09-15T11:53:11.443Z,98723.00
2018-09-15T11:57:14.139Z,98720.00
2018-09-15T12:01:16.364Z,98728.00
2018-09-15T12:05:19.606Z,98729.00
2018-09-15T12:09:21.891Z,98728.00
2018-09-15T12:13:24.052Z,98733.00
2018-09-15T12:17:26.219Z,98736.00
2018-09-15T12:21:28.410Z,98729.00
2018-09-15T12:25:30.598Z,98732.00
2018-09-15T12:29:32.807Z,98733.00
2018-09-15T12:33:35.433Z,98731.00
2018-09-15T12:37:37.606Z,98744.00
2018-09-15T12:41:42.039Z,98737.00
2018-09-15T12:45:44.360Z,98736.00
2018-09-15T12:49:46.646Z,98726.00
2018-09-15T12:53:48.896Z,98721.00
2018-09-15T12:57:51.289Z,98727.00
2018-09-15T13:01:53.621Z,98730.00
2018-09-15T13:05:55.802Z,98728.00
2018-09-15T13:09:58.037Z,98721.00
2018-09-15T13:14:00.279Z,98721.00
2018-09-15T13:18:02.534Z,98717.00
2018-09-15T13:22:05.220Z,98724.00
2018-09-15T13:26:07.469Z,98720.00
2018-09-15T13:30:09.908Z,98715.00
2018-09-15T13:34:12.093Z,98729.00
2018-09-15T13:38:15.661Z,98720.00
2018-09-15T13:42:17.940Z,98722.00
2018-09-15T13:46:20.213Z,98703.00
2018-09-15T13:50:22.397Z,98715.00
2018-09-15T13:54:24.576Z,98711.00
2018-09-15T13:58:26.763Z,98707.00
2018-09-15T14:02:28.940Z,98718.00
2018-09-15T14:06:31.110Z,98707.00
2018-09-15T14:10:33.354Z,98722.00
2018-09-15T14:14:35.559Z,98723.00
2018-09-15T14:18:37.744Z,98723.00
2018-09-15T14:22:39.947Z,98722.00
2018-09-15T14:26:42.107Z,98714.00
2018-09-15T14:30:44.556Z,98715.00
2018-09-15T14:34:46.915Z,98723.00
2018-09-15T14:38:49.248Z,98714.00
2018-09-15T14:42:51.497Z,98716.00
2018-09-15T14:46:53.857Z,98707.00
2018-09-15T14:50:56.081Z,98711.00
2018-09-15T14:54:58.270Z,98705.00
2018-09-15T14:59:00.487Z,98712.00
2018-09-15T15:03:04.933Z,98710.00
2018-09-15T15:07:07.156Z,98710.00
2018-09-15T15:11:09.311Z,98710.00
2018-09-15T15:15:11.495Z,98710.00
2018-09-15T15:19:13.884Z,98717.00
2018-09-15T15:23:16.137Z,98714.00
2018-09-15T15:27:18.319Z,98709.00
2018-09-15T15:31:20.511Z,98710.00
2018-09-15T15:35:22.841Z,98720.00
2018-09-15T15:39:25.658Z,98716.00
2018-09-15T15:43:27.918Z,98711.00
2018-09-15T15:47:30.107Z,98705.00
2018-09-15T15:51:32.694Z,98706.00
2018-09-15T15:55:37.194Z,98705.00
2018-09-15T15:59:39.413Z,98706.00
2018-09-15T16:03:41.665Z,98714.00
2018-09-15T16:07:43.918Z,98718.00
2018-09-15T16:11:47.151Z,98726.00
2018-09-15T16:15:50.272Z,98726.00
2018-09-15T16:19:52.518Z,98724.00
2018-09-15T16:23:54.736Z,98720.00
2018-09-15T16:27:57.132Z,98724.00
2018-09-15T16:31:59.333Z,98721.00
2018-09-15T16:36:01.966Z,98723.00
2018-09-15T16:40:04.247Z,98722.00
2018-09-15T16:44:06.743Z,98723.00
2018-09-15T16:48:08.948Z,98727.00
2018-09-15T16:52:11.238Z,98733.00
2018-09-15T16:56:13.453Z,98727.00
2018-09-15T17:00:15.677Z,98725.00
2018-09-15T17:04:17.955Z,98726.00
2018-09-15T17:08:20.189Z,98727.00
2018-09-15T17:12:22.386Z,98731.00
2018-09-15T17:16:24.624Z,98729.00
2018-09-15T17:20:26.834Z,98728.00
2018-09-15T17:24:29.081Z,98732.00
2018-09-15T17:28:31.375Z,98733.00
2018-09-15T17:32:33.627Z,98738.00
2018-09-15T17:36:35.870Z,98740.00
2018-09-15T17:40:38.108Z,98741.00
2018-09-15T17:44:40.446Z,98746.00
2018-09-15T17:48:42.686Z,98751.00
2018-09-15T17:52:44.973Z,98749.00
2018-09-15T17:56:47.167Z,98762.00
2018-09-15T18:00:49.788Z,98762.00
2018-09-15T18:04:52.098Z,98761.00
2018-09-15T18:08:54.301Z,98764.00
2018-09-15T18:12:56.546Z,98770.00
2018-09-15T18:16:58.802Z,98774.00
2018-09-15T18:21:01.125Z,98772.00
2018-09-15T18:25:03.503Z,98776.00
2018-09-15T18:29:05.756Z,98773.00
2018-09-15T18:33:07.971Z,98773.00
2018-09-15T18:37:10.221Z,98786.00
2018-09-15T18:41:12.523Z,98783.00
2018-09-15T18:45:14.721Z,98786.00
2018-09-15T18:49:17.189Z,98791.00
2018-09-15T18:53:19.535Z,98794.00
2018-09-15T18:57:21.783Z,98793.00
2018-09-15T19:01:24.513Z,98796.00
2018-09-15T19:05:29.579Z,98796.00
2018-09-15T19:09:31.936Z,98798.00
2018-09-15T19:13:34.091Z,98805.00
2018-09-15T19:17:38.351Z,98802.00
2018-09-15T19:21:40.551Z,98808.00
2018-09-15T19:25:43.416Z,98799.00
2018-09-15T19:29:45.831Z,98796.00
2018-09-15T19:33:48.762Z,98803.00
2018-09-15T19:37:51.916Z,98805.00
2018-09-15T19:41:54.255Z,98809.00
2018-09-15T19:45:56.547Z,98803.00
2018-09-15T19:49:58.748Z,98804.00
2018-09-15T19:54:01.184Z,98818.00
2018-09-15T19:58:03.459Z,98808.00
2018-09-15T20:02:05.905Z,98809.00
2018-09-15T20:06:08.431Z,98811.00
2018-09-15T20:10:10.589Z,98800.00
2018-09-15T20:14:12.792Z,98807.00
2018-09-15T20:18:15.359Z,98805.00
2018-09-15T20:22:17.760Z,98813.00
2018-09-15T20:26:20.440Z,98815.00
2018-09-15T20:30:24.775Z,98826.00
2018-09-15T20:34:27.630Z,98820.00
2018-09-15T20:38:29.925Z,98823.00
2018-09-15T20:42:32.222Z,98822.00
2018-09-15T20:46:34.443Z,98825.00
2018-09-15T20:50:37.305Z,98824.00
2018-09-15T20:54:39.860Z,98827.00
2018-09-15T20:58:42.202Z,98829.00
2018-09-15T21:02:44.627Z,98829.00
2018-09-15T21:06:46.887Z,98826.00
2018-09-15T21:10:49.315Z,98836.00
2018-09-15T21:14:51.622Z,98829.00
2018-09-15T21:18:53.987Z,98833.00
2018-09-15T21:22:56.191Z,98835.00
2018-09-15T21:26:58.492Z,98827.00
2018-09-15T21:31:00.656Z,98832.00
2018-09-15T21:35:03.067Z,98830.00
2018-09-15T21:39:08.166Z,98829.00
2018-09-15T21:43:10.731Z,98830.00
2018-09-15T21:47:13.280Z,98823.00
2018-09-15T21:51:15.588Z,98817.00
2018-09-15T21:55:17.810Z,98821.00
2018-09-15T21:59:20.110Z,98815.00
2018-09-15T22:03:22.819Z,98822.00
2018-09-15T22:07:25.159Z,98823.00
2018-09-15T22:11:29.795Z,98738.00
2018-09-15T22:15:32.135Z,98828.00
2018-09-15T22:19:34.471Z,98836.00
2018-09-15T22:23:36.719Z,98839.00
2018-09-15T22:27:48.928Z,98834.00
2018-09-15T22:31:51.320Z,98837.00
2018-09-15T22:35:53.594Z,98837.00
2018-09-15T22:39:55.994Z,98833.00
2018-09-15T22:43:58.227Z,98833.00
2018-09-15T22:48:00.431Z,98832.00
2018-09-15T22:52:02.647Z,98828.00
2018-09-15T22:56:05.033Z,98821.00
2018-09-15T23:00:09.339Z,98826.00
2018-09-15T23:04:13.640Z,98833.00
2018-09-15T23:08:15.871Z,98834.00
2018-09-15T23:12:17.972Z,98827.00
2018-09-15T23:16:20.508Z,98827.00
2018-09-15T23:20:22.762Z,98827.00
2018-09-15T23:24:24.951Z,98829.00
2018-09-15T23:28:27.092Z,98831.00
2018-09-15T23:32:29.307Z,98826.00
2018-09-15T23:36:31.477Z,98822.00
2018-09-15T23:40:33.646Z,98820.00
2018-09-15T23:44:35.945Z,98815.00
2018-09-15T23:48:38.123Z,98811.00
2018-09-15T23:52:40.383Z,98812.00
2018-09-15T23:56:42.583Z,98808.00
